createdAt,value
2023-04-18T03:39:45.600Z,100267.81
2023-04-18T03:42:49.711Z,100267.81
2023-04-18T03:45:52.583Z,100275.69
2023-04-18T03:48:55.983Z,100276.78
2023-04-18T03:51:58.785Z,100279.06
2023-04-18T03:55:01.663Z,100280.66
2023-04-18T03:58:05.210Z,100288.56
2023-04-18T04:01:08.110Z,100287.91
2023-04-18T04:04:13.098Z,100289.75
2023-04-18T04:07:15.984Z,100289.69
2023-04-18T04:10:19.063Z,100301.13
2023-04-18T04:13:23.141Z,100300.53
2023-04-18T04:16:27.487Z,100298.81
2023-04-18T04:19:30.549Z,100301.37
2023-04-18T04:22:34.548Z,100301.97
2023-04-18T04:25:38.672Z,100311.97
2023-04-18T04:28:46.321Z,100312.84
2023-04-18T04:31:49.936Z,100308.19
2023-04-18T04:34:53.786Z,100314.47
2023-04-18T04:37:56.884Z,100322.56
2023-04-18T04:41:00.212Z,100319.94
2023-04-18T04:44:04.293Z,100330.56
2023-04-18T04:47:07.761Z,100329.00
2023-04-18T04:50:15.366Z,100328.94
2023-04-18T04:53:18.825Z,100329.81
2023-04-18T04:56:22.890Z,100327.09
2023-04-18T04:59:26.014Z,100329.41
2023-04-18T05:02:30.047Z,100328.56
2023-04-18T05:05:33.131Z,100334.53
2023-04-18T05:08:36.007Z,100340.28
2023-04-18T05:11:38.891Z,100343.53
2023-04-18T05:14:41.498Z,100338.87
2023-04-18T05:17:44.465Z,100341.75
2023-04-18T05:20:47.064Z,100340.91
2023-04-18T05:23:50.046Z,100335.63
2023-04-18T05:26:53.185Z,100346.78
2023-04-18T05:29:56.319Z,100346.88
2023-04-18T05:32:59.111Z,100343.72
2023-04-18T05:36:02.190Z,100353.09
2023-04-18T05:39:04.898Z,100350.06
2023-04-18T05:42:08.149Z,100353.53
2023-04-18T05:45:11.362Z,100345.37
2023-04-18T05:48:14.505Z,100349.41
2023-04-18T05:51:17.049Z,100351.16
2023-04-18T05:54:23.140Z,100352.41
2023-04-18T05:57:25.825Z,100360.16
2023-04-18T06:00:29.149Z,100352.84
2023-04-18T06:03:40.816Z,100356.75
2023-04-18T06:06:43.582Z,100353.84
2023-04-18T06:09:46.578Z,100357.34
2023-04-18T06:12:49.548Z,100359.56
2023-04-18T06:15:52.565Z,100366.13
2023-04-18T06:18:55.382Z,100366.88
2023-04-18T06:21:58.091Z,100367.16
2023-04-18T06:25:00.806Z,100367.69
2023-04-18T06:28:03.510Z,100376.88
2023-04-18T06:31:06.112Z,100375.66
2023-04-18T06:34:09.299Z,100375.44
2023-04-18T06:37:12.056Z,100371.53
2023-04-18T06:40:14.937Z,100379.91
2023-04-18T06:43:17.460Z,100377.84
2023-04-18T06:46:21.306Z,100378.91
2023-04-18T06:49:26.359Z,100374.06
2023-04-18T06:52:29.743Z,100370.19
2023-04-18T06:55:32.464Z,100374.56
2023-04-18T06:58:35.465Z,100384.69
2023-04-18T07:01:44.623Z,100391.38
2023-04-18T07:04:47.884Z,100389.78
2023-04-18T07:07:51.431Z,100390.75
2023-04-18T07:10:54.356Z,100387.56
2023-04-18T07:13:57.229Z,100395.38
2023-04-18T07:17:00.951Z,100394.22
2023-04-18T07:20:03.981Z,100391.38
2023-04-18T07:23:07.575Z,100395.44
2023-04-18T07:26:12.644Z,100390.88
2023-04-18T07:29:15.745Z,100395.25
2023-04-18T07:32:18.664Z,100403.59
2023-04-18T07:35:21.797Z,100397.94
2023-04-18T07:38:24.452Z,100405.03
2023-04-18T07:41:27.424Z,100403.41
2023-04-18T07:44:30.324Z,100411.31
2023-04-18T07:47:33.709Z,100407.63
2023-04-18T07:50:36.598Z,100412.19
2023-04-18T07:53:41.110Z,100417.94
2023-04-18T07:56:43.671Z,100422.72
2023-04-18T07:59:46.522Z,100420.91
2023-04-18T08:02:49.619Z,100421.31
2023-04-18T08:05:53.590Z,100424.50
2023-04-18T08:08:56.314Z,100422.06
2023-04-18T08:11:59.357Z,100428.41
2023-04-18T08:15:02.006Z,100434.75
2023-04-18T08:18:05.806Z,100432.47
2023-04-18T08:21:08.402Z,100430.25
2023-04-18T08:24:11.124Z,100433.91
2023-04-18T08:27:13.805Z,100424.44
2023-04-18T08:30:16.980Z,100428.25
2023-04-18T08:33:19.591Z,100425.16
2023-04-18T08:36:22.618Z,100431.16
2023-04-18T08:39:25.390Z,100427.63
2023-04-18T08:42:29.119Z,100427.22
2023-04-18T08:45:33.430Z,100419.66
2023-04-18T08:48:36.812Z,100429.66
2023-04-18T08:51:41.678Z,100427.63
2023-04-18T08:54:47.009Z,100429.50
2023-04-18T08:57:54.100Z,100434.69
2023-04-18T09:00:57.150Z,100426.31
2023-04-18T09:03:59.865Z,100431.75
2023-04-18T09:07:03.397Z,100434.16
2023-04-18T09:10:06.383Z,100433.41
2023-04-18T09:13:10.029Z,100431.34
2023-04-18T09:16:13.611Z,100437.00
2023-04-18T09:19:19.370Z,100436.31
2023-04-18T09:22:22.881Z,100437.25
2023-04-18T09:25:27.385Z,100434.97
2023-04-18T09:28:33.111Z,100438.16
2023-04-18T09:31:54.783Z,100439.09
2023-04-18T09:35:04.286Z,100433.09
2023-04-18T09:38:07.945Z,100436.75
2023-04-18T09:41:12.224Z,100443.72
2023-04-18T09:44:17.160Z,100435.97
2023-04-18T09:47:20.194Z,100437.06
2023-04-18T09:50:22.963Z,100430.34
2023-04-18T09:53:26.703Z,100430.66
2023-04-18T09:56:32.672Z,100426.00
2023-04-18T09:59:55.240Z,100432.06
2023-04-18T10:03:09.974Z,100420.53
2023-04-18T10:09:36.765Z,100414.19
2023-04-18T10:12:41.499Z,100420.19
2023-04-18T10:15:44.562Z,100420.94
2023-04-18T10:18:50.771Z,100426.78
2023-04-18T10:21:53.976Z,100413.72
2023-04-18T10:24:57.176Z,100425.78
2023-04-18T10:28:00.938Z,100423.50
2023-04-18T10:31:04.304Z,100413.25
2023-04-18T10:34:07.377Z,100418.69
2023-04-18T10:37:12.980Z,100414.34
2023-04-18T10:40:15.753Z,100420.66
2023-04-18T10:43:18.773Z,100420.53
2023-04-18T10:46:31.813Z,100420.75
2023-04-18T10:49:38.626Z,100416.50
2023-04-18T10:52:41.819Z,100414.41
2023-04-18T10:55:54.553Z,100413.59
2023-04-18T10:59:01.788Z,100413.03
2023-04-18T11:02:13.825Z,100408.72
2023-04-18T11:05:25.683Z,100402.84
2023-04-18T11:08:28.765Z,100399.97
2023-04-18T11:11:31.832Z,100401.25
2023-04-18T11:14:44.698Z,100401.34
2023-04-18T11:18:04.701Z,100396.00
2023-04-18T11:21:07.930Z,100408.50
2023-04-18T11:24:10.797Z,100406.81
2023-04-18T11:27:14.193Z,100413.59
2023-04-18T11:30:17.887Z,100418.81
2023-04-18T11:33:21.016Z,100413.75
2023-04-18T11:36:24.032Z,100422.69
2023-04-18T11:39:27.595Z,100414.47
2023-04-18T11:42:37.690Z,100415.34
2023-04-18T11:45:51.507Z,100412.00
2023-04-18T11:48:54.241Z,100403.16
2023-04-18T11:52:01.477Z,100404.16
2023-04-18T11:55:18.668Z,100403.44
2023-04-18T11:58:31.709Z,100406.97
2023-04-18T12:01:34.359Z,100401.34
2023-04-18T12:04:58.315Z,100402.75
2023-04-18T12:08:18.874Z,100396.28
2023-04-18T12:11:21.782Z,100398.41
2023-04-18T12:14:24.675Z,100394.41
2023-04-18T12:17:28.488Z,100392.78
2023-04-18T12:20:52.188Z,100396.91
2023-04-18T12:23:55.326Z,100395.88
2023-04-18T12:26:58.669Z,100402.63
2023-04-18T12:30:01.900Z,100401.06
2023-04-18T12:33:04.964Z,100389.09
2023-04-18T12:36:08.660Z,100387.00
2023-04-18T12:39:11.361Z,100379.59
2023-04-18T12:42:14.293Z,100387.62
2023-04-18T12:45:18.124Z,100397.78
2023-04-18T12:48:21.016Z,100396.69
2023-04-18T12:51:24.352Z,100391.91
2023-04-18T12:54:27.206Z,100396.09
2023-04-18T12:57:31.684Z,100394.84
2023-04-18T13:00:35.166Z,100387.75
2023-04-18T13:03:38.300Z,100398.56
2023-04-18T13:06:41.521Z,100386.72
2023-04-18T13:09:46.465Z,100399.25
2023-04-18T13:12:50.209Z,100397.69
2023-04-18T13:15:52.826Z,100384.19
2023-04-18T13:18:55.688Z,100392.66
2023-04-18T13:21:59.330Z,100390.22
2023-04-18T13:25:02.253Z,100385.69
2023-04-18T13:28:05.216Z,100380.28
2023-04-18T13:31:08.215Z,100386.66
2023-04-18T13:34:10.859Z,100381.84
2023-04-18T13:37:17.057Z,100382.06
2023-04-18T13:40:19.843Z,100367.97
2023-04-18T13:43:22.890Z,100372.03
2023-04-18T13:46:27.600Z,100383.44
2023-04-18T13:49:30.921Z,100385.22
2023-04-18T13:52:33.874Z,100384.75
2023-04-18T13:55:37.216Z,100379.50
2023-04-18T13:58:39.725Z,100379.25
2023-04-18T14:01:42.925Z,100374.78
2023-04-18T14:04:46.527Z,100373.94
2023-04-18T14:07:49.192Z,100365.78
2023-04-18T14:10:52.406Z,100368.47
2023-04-18T14:13:55.144Z,100364.38
2023-04-18T14:16:58.166Z,100351.00
2023-04-18T14:20:01.505Z,100346.56
2023-04-18T14:23:04.468Z,100352.44
2023-04-18T14:26:07.094Z,100340.69
2023-04-18T14:29:10.143Z,100331.28
2023-04-18T14:32:13.743Z,100332.03
2023-04-18T14:35:16.913Z,100336.03
2023-04-18T14:38:19.542Z,100335.94
2023-04-18T14:41:22.371Z,100342.81
2023-04-18T14:44:25.531Z,100343.66
2023-04-18T14:47:31.901Z,100333.66
2023-04-18T14:50:36.011Z,100343.62
2023-04-18T14:53:39.119Z,100350.91
2023-04-18T14:56:41.863Z,100347.00
2023-04-18T14:59:44.848Z,100355.66
2023-04-18T15:02:47.936Z,100358.94
2023-04-18T15:05:53.189Z,100351.94
2023-04-18T15:08:56.723Z,100350.31
2023-04-18T15:12:00.164Z,100355.34
2023-04-18T15:15:02.825Z,100339.28
2023-04-18T15:18:07.544Z,100332.75
2023-04-18T15:21:10.281Z,100333.59
2023-04-18T15:24:13.339Z,100332.22
2023-04-18T15:27:16.219Z,100342.03
